Worland, Wyoming
Current Conditions -  °F | °C
As of 3:53 AM on Friday 24 Oct 2014 (Local Time) from KWRL Reporting Station
Clear Clear  
Wind Chill: 36°   Ceiling: Unl
Heat Index: 40°   Visibility: 10mi
Dew Point: 27°   Wind: 6mph
Humidity: 60%   Direction: 80°E
Pressure: 29.97"   Gusts: NA
Location:  44.02°N, 107.95°W
Report Text: KWRL 240953Z AUTO 08005KT 10SM CLR 04/M03 A2997 RMK AO2 SNB05E15 SLP130 P0000 T00441028
Loading
Personal Weather Stations






























Interactive Weather Map
Tropical Storm Tracking
New forecast layout! Learn more

10-Day Weather Forecast

Advertisements
Track Severe Weather on mobile